Time;durP1;ratioP1;P1;durP2;ratioP2;P2;SDS_P1;SDS_P2;PMS_P1;PMS_P2;Temp;Humidity;BMP_temperature;BMP_pressure;BME280_temperature;BME280_humidity;BME280_pressure;Samples;Min_cycle;Max_cycle;Signal;HPM_P1;HPM_P2
2024/01/26 07:35:07;;;;;;;0.87;0.87;;;12.20;99.90;13.60;101681.00;;;;6333991;22;20209;-72
2024/01/26 07:37:36;;;;;;;1.93;1.77;;;12.10;99.90;13.60;101702.00;;;;6045191;22;6573638;-72
2024/01/26 07:40:09;;;;;;;1.73;1.63;;;12.10;99.90;13.30;101711.00;;;;6307576;22;20535;-71
2024/01/26 07:42:36;;;;;;;5.83;3.20;;;12.10;99.90;13.30;101716.00;;;;6307594;22;20600;-71
2024/01/26 07:45:05;;;;;;;3.67;2.77;;;12.10;99.90;13.10;101732.00;;;;6307761;22;20151;-72
2024/01/26 07:47:42;;;;;;;1.77;1.60;;;12.10;99.90;13.70;101740.00;;;;6309016;22;20147;-72
2024/01/26 07:50:08;;;;;;;1.27;1.17;;;12.20;99.90;13.90;101746.00;;;;6306189;22;20176;-72
2024/01/26 07:52:34;;;;;;;3.40;3.10;;;12.20;99.90;13.50;101723.00;;;;6281731;22;20152;-72
2024/01/26 07:54:59;;;;;;;2.77;2.43;;;12.20;99.90;13.30;101757.00;;;;6281710;22;20154;-72
2024/01/26 07:57:26;;;;;;;4.47;3.00;;;12.10;99.90;13.40;101761.00;;;;6281430;22;20206;-72
2024/01/26 07:59:52;;;;;;;4.23;3.80;;;12.10;99.90;13.00;101748.00;;;;6307275;22;20135;-73
2024/01/26 08:02:24;;;;;;;3.40;2.67;;;12.00;99.90;13.70;101776.00;;;;6308721;22;20185;-72
2024/01/26 08:04:54;;;;;;;2.60;2.33;;;12.10;99.90;13.30;101779.00;;;;6306456;22;20163;-73
2024/01/26 08:07:21;;;;;;;3.27;2.67;;;12.10;99.90;13.30;101777.00;;;;6281719;22;20228;-72
2024/01/26 08:09:50;;;;;;;6.20;2.53;;;12.20;99.90;13.70;101765.00;;;;6308849;22;20168;-72
2024/01/26 08:12:22;;;;;;;4.13;2.07;;;12.20;99.90;13.60;101770.00;;;;6307465;22;20152;-72
2024/01/26 08:14:50;;;;;;;2.73;2.47;;;12.20;99.90;13.40;101775.00;;;;6306944;22;20144;-72
2024/01/26 08:17:27;;;;;;;5.20;2.70;;;12.10;99.90;13.20;101786.00;;;;6307109;22;20162;-72
2024/01/26 08:20:04;;;;;;;2.50;2.20;;;12.10;99.90;13.70;101745.00;;;;6307071;22;20216;-73
2024/01/26 08:22:33;;;;;;;1.27;1.20;;;12.20;99.90;13.60;101782.00;;;;6308214;22;20225;-73
2024/01/26 08:25:11;;;;;;;4.00;2.93;;;12.30;99.90;13.80;101776.00;;;;6306927;22;20170;-73
2024/01/26 08:27:39;;;;;;;2.07;1.13;;;12.30;99.90;13.70;101774.00;;;;6281731;22;20204;-73
2024/01/26 08:30:09;;;;;;;1.40;1.30;;;12.30;99.90;13.90;101778.00;;;;6306802;22;20136;-73
2024/01/26 08:32:52;;;;;;;3.50;2.43;;;12.30;99.90;13.80;101775.00;;;;6308193;22;20175;-73
2024/01/26 08:35:18;;;;;;;6.63;2.80;;;12.30;99.90;13.60;101782.00;;;;6281449;22;20154;-73
2024/01/26 08:37:45;;;;;;;2.80;2.37;;;12.30;99.90;13.20;101794.00;;;;6280163;22;20171;-73
2024/01/26 08:40:13;;;;;;;6.13;2.53;;;12.20;99.90;13.40;101788.00;;;;6306654;22;20159;-73
2024/01/26 08:42:43;;;;;;;1.97;1.77;;;12.10;99.90;13.10;101790.00;;;;6307839;22;20588;-73
2024/01/26 08:45:42;;;;;;;4.50;2.03;;;12.10;99.90;13.60;101825.00;;;;6280955;22;20159;-73
2024/01/26 08:48:08;;;;;;;3.10;2.83;;;12.10;99.90;14.50;101805.00;;;;6298801;22;20164;-74
2024/01/26 08:50:40;;;;;;;3.70;1.70;;;12.30;99.90;14.60;101836.00;;;;6307098;22;20168;-75
2024/01/26 08:53:06;;;;;;;6.63;4.10;;;12.50;99.90;13.60;101845.00;;;;6306756;22;20147;-74
2024/01/26 08:55:33;;;;;;;8.67;2.77;;;12.30;99.90;13.50;101805.00;;;;6308349;22;20154;-74
2024/01/26 08:57:59;;;;;;;3.57;1.97;;;12.20;99.90;13.50;101840.00;;;;6306528;22;20171;-74
2024/01/26 09:00:26;;;;;;;11.13;2.70;;;12.10;99.90;13.20;101852.00;;;;6306785;22;20163;-74
2024/01/26 09:02:52;;;;;;;11.27;3.07;;;12.10;99.90;13.70;101842.00;;;;6307593;22;20172;-74
2024/01/26 09:05:23;;;;;;;3.90;1.97;;;12.10;99.90;14.30;101857.00;;;;6307756;22;20206;-73
2024/01/26 09:07:49;;;;;;;2.40;2.20;;;12.30;99.90;14.00;101872.00;;;;6307516;22;20497;-74
2024/01/26 09:10:23;;;;;;;1.67;1.57;;;12.30;99.90;14.00;101871.00;;;;6308257;22;20143;-74
2024/01/26 09:12:55;;;;;;;6.83;1.67;;;12.20;99.90;13.90;101836.00;;;;6307679;22;20587;-74
2024/01/26 09:15:21;;;;;;;9.93;2.50;;;12.20;99.90;13.60;101870.00;;;;6306239;22;20594;-74
2024/01/26 09:17:47;;;;;;;1.30;1.27;;;12.20;99.90;14.00;101843.00;;;;6305676;22;20474;-74
2024/01/26 09:20:13;;;;;;;4.60;1.60;;;12.10;99.90;14.10;101900.00;;;;6306076;22;20190;-74
2024/01/26 09:22:39;;;;;;;1.20;1.20;;;12.10;99.90;14.20;101878.00;;;;6305948;22;20172;-74
2024/01/26 09:25:08;;;;;;;1.30;1.23;;;12.10;99.90;14.40;101886.00;;;;6280465;22;20490;-73
2024/01/26 09:27:37;;;;;;;1.10;1.10;;;12.20;99.90;14.70;101896.00;;;;6306262;22;20488;-73
2024/01/26 09:30:15;;;;;;;2.10;2.00;;;12.30;99.90;14.10;101919.00;;;;6306656;22;20158;-73
2024/01/26 09:32:48;;;;;;;3.50;2.73;;;12.10;99.90;14.50;101935.00;;;;6280675;22;20170;-73
2024/01/26 09:35:14;;;;;;;1.90;1.80;;;12.10;99.90;14.70;101900.00;;;;6279958;22;20173;-73
2024/01/26 09:37:41;;;;;;;1.37;1.37;;;12.30;99.90;14.40;101905.00;;;;6306492;22;20524;-73
2024/01/26 09:40:18;;;;;;;1.30;1.30;;;12.10;99.90;14.60;101947.00;;;;6280637;22;20215;-73
2024/01/26 09:42:47;;;;;;;1.63;1.63;;;12.30;99.90;14.80;101934.00;;;;6305789;22;20232;-73
2024/01/26 09:45:14;;;;;;;1.50;1.50;;;12.40;99.90;15.40;101976.00;;;;6280006;22;20167;-73
2024/01/26 09:48:04;;;;;;;1.80;1.70;;;12.60;99.90;14.90;102000.00;;;;6305560;22;20160;-73
2024/01/26 09:50:31;;;;;;;1.50;1.50;;;12.50;99.90;15.50;102008.00;;;;6305807;22;20515;-73
2024/01/26 09:53:05;;;;;;;4.93;2.43;;;12.60;99.90;15.00;102039.00;;;;6305846;22;20140;-73
2024/01/26 09:55:34;;;;;;;1.70;1.70;;;12.70;99.90;15.60;102053.00;;;;6280813;22;20166;-73
2024/01/26 09:58:24;;;;;;;2.37;2.17;;;12.80;99.90;15.20;102064.00;;;;6305466;22;20163;-73
2024/01/26 10:00:54;;;;;;;6.07;2.20;;;12.80;99.90;15.10;102079.00;;;;6255046;22;20177;-73
2024/01/26 10:03:28;;;;;;;1.60;1.50;;;12.80;99.90;15.20;102093.00;;;;6304795;22;20648;-74
2024/01/26 10:05:54;;;;;;;2.40;1.70;;;12.80;99.90;15.10;102118.00;;;;6278990;22;20153;-74
2024/01/26 10:08:24;;;;;;;1.20;1.20;;;12.80;99.90;15.10;102121.00;;;;6304509;22;20587;-73
2024/01/26 10:10:55;;;;;;;1.30;1.30;;;12.70;99.90;16.10;102176.00;;;;6278857;22;20588;-74
2024/01/26 10:13:26;;;;;;;1.00;1.00;;;13.00;99.90;15.80;102222.00;;;;6278346;22;20161;-73
2024/01/26 10:16:12;;;;;;;0.60;0.60;;;13.20;99.90;15.60;102243.00;;;;6277383;22;20226;-74
2024/01/26 10:18:46;;;;;;;0.90;0.90;;;13.10;99.90;15.60;102261.00;;;;6305002;22;20155;-73
2024/01/26 10:33:33;;;;;;;0.70;0.70;;;11.20;99.90;13.60;102233.00;;;;5118465;27;20615;-73
2024/01/26 10:36:07;;;;;;;0.70;0.70;;;11.40;99.90;14.40;102231.00;;;;5081417;28;20181;-71
2024/01/26 10:38:35;;;;;;;2.03;1.93;;;11.70;99.90;14.90;102281.00;;;;5097477;28;20201;-71
2024/01/26 10:41:04;;;;;;;0.70;0.70;;;12.10;99.90;15.20;102291.00;;;;5114740;28;21005;-71
2024/01/26 10:43:33;;;;;;;7.17;1.77;;;12.50;99.90;15.80;102323.00;;;;5080947;28;20188;-72
2024/01/26 10:46:01;;;;;;;0.97;0.97;;;12.80;99.90;16.50;102347.00;;;;5080914;28;20269;-72
2024/01/26 10:48:35;;;;;;;2.40;2.37;;;13.30;99.90;16.10;102372.00;;;;5097234;28;20245;-71
2024/01/26 10:51:06;;;;;;;0.67;0.67;;;13.30;99.90;16.00;102403.00;;;;5096615;28;20190;-72
2024/01/26 10:53:33;;;;;;;1.43;1.43;;;13.30;99.90;16.00;102412.00;;;;5081469;28;20181;-68
2024/01/26 10:56:04;;;;;;;0.70;0.70;;;13.20;99.90;16.40;102422.00;;;;5080465;28;20564;-68
2024/01/26 10:58:31;;;;;;;0.90;0.90;;;13.20;99.90;16.90;102424.00;;;;5079947;28;20198;-70
2024/01/26 11:00:58;;;;;;;0.90;0.90;;;13.50;99.90;16.50;102452.00;;;;5095761;28;20177;-70
2024/01/26 11:03:26;;;;;;;0.50;0.50;;;13.50;99.90;16.50;102459.00;;;;5096238;28;20194;-68
2024/01/26 11:05:59;;;;;;;2.73;1.17;;;13.60;99.90;16.30;102455.00;;;;5096795;28;20237;-71
2024/01/26 11:08:30;;;;;;;1.00;1.00;;;13.40;99.90;16.60;102478.00;;;;5095960;28;20556;-70
2024/01/26 11:10:56;;;;;;;0.77;0.77;;;13.40;99.90;17.20;102489.00;;;;5097749;28;20214;-69
2024/01/26 11:13:24;;;;;;;0.50;0.50;;;13.70;99.90;16.80;102485.00;;;;5103565;28;20223;-71
2024/01/26 11:15:51;;;;;;;3.00;0.50;;;13.80;99.90;16.30;102478.00;;;;5096230;28;20186;-71
2024/01/26 11:18:26;;;;;;;0.60;0.60;;;13.70;99.90;16.90;102488.00;;;;5096517;28;20268;-70
2024/01/26 11:20:52;;;;;;;0.30;0.30;;;13.70;99.90;16.20;102503.00;;;;5097144;28;20271;-69
2024/01/26 11:23:21;;;;;;;0.83;0.50;;;13.60;99.90;16.80;102521.00;;;;5096734;28;20376;-70
2024/01/26 11:25:51;;;;;;;0.83;0.70;;;13.60;99.90;16.50;102522.00;;;;5095498;28;20183;-69
2024/01/26 11:28:33;;;;;;;0.83;0.50;;;13.50;99.90;16.10;102520.00;;;;5097498;28;20217;-70
2024/01/26 11:31:00;;;;;;;0.30;0.30;;;13.30;99.90;16.50;102526.00;;;;5081158;28;20183;-71
2024/01/26 11:33:39;;;;;;;0.30;0.30;;;13.20;99.90;16.60;102530.00;;;;5096698;28;20185;-69
2024/01/26 11:36:11;;;;;;;0.40;0.40;;;13.30;99.90;16.80;102533.00;;;;5096235;28;20228;-69
2024/01/26 11:38:47;;;;;;;0.40;0.40;;;13.40;99.90;16.70;102542.00;;;;5096933;28;20193;-70
2024/01/26 11:41:25;;;;;;;0.77;0.47;;;13.50;99.90;16.60;102518.00;;;;5096403;28;20199;-74
2024/01/26 11:43:54;;;;;;;0.27;0.27;;;13.50;99.90;16.10;102559.00;;;;5086752;28;20546;-72
2024/01/26 11:46:21;;;;;;;0.20;0.20;;;13.40;99.90;16.50;102559.00;;;;5083018;28;20185;-70
2024/01/26 11:48:47;;;;;;;0.20;0.20;;;13.40;99.90;16.90;102559.00;;;;5082996;28;20201;-71
2024/01/26 11:51:18;;;;;;;0.30;0.30;;;13.50;99.90;16.20;102570.00;;;;5081110;28;20303;-72
2024/01/26 11:53:44;;;;;;;0.20;0.20;;;13.30;99.90;16.20;102575.00;;;;5083172;28;20667;-71
2024/01/26 11:56:14;;;;;;;0.60;0.60;;;13.10;99.90;16.10;102573.00;;;;5082345;28;20203;-72
2024/01/26 11:58:41;;;;;;;0.20;0.20;;;13.10;99.90;16.10;102585.00;;;;5082577;28;20220;-72
2024/01/26 12:01:11;;;;;;;0.20;0.20;;;13.10;99.90;16.20;102598.00;;;;5082530;28;20247;-72
2024/01/26 12:03:40;;;;;;;0.20;0.20;;;13.00;99.90;15.70;102612.00;;;;5083550;28;20275;-72
2024/01/26 12:06:09;;;;;;;0.40;0.40;;;12.80;99.90;15.40;102616.00;;;;5082688;28;20181;-72
2024/01/26 12:08:36;;;;;;;7.43;1.17;;;12.60;99.90;14.60;102643.00;;;;5081428;28;20295;-72
2024/01/26 12:11:04;;;;;;;0.97;0.97;;;12.20;99.90;15.30;102629.00;;;;5081671;28;20182;-73
2024/01/26 12:13:30;;;;;;;0.20;0.20;;;12.20;99.90;15.40;102628.00;;;;5082888;28;20197;-72
2024/01/26 12:15:57;;;;;;;0.20;0.20;;;12.30;99.90;16.00;102631.00;;;;5082626;28;20682;-72
2024/01/26 12:18:26;;;;;;;0.33;0.33;;;12.60;99.90;15.50;102633.00;;;;5082863;28;20257;-72
2024/01/26 12:21:17;;;;;;;3.10;1.93;;;12.50;99.90;15.00;102647.00;;;;5077854;28;20184;-72
2024/01/26 12:23:48;;;;;;;0.20;0.20;;;12.40;99.90;15.70;102641.00;;;;5063019;28;20187;-73
2024/01/26 12:26:19;;;;;;;0.10;0.10;;;12.50;99.90;15.90;102651.00;;;;5071452;28;20267;-73
2024/01/26 12:28:47;;;;;;;0.10;0.10;;;12.60;99.90;15.90;102657.00;;;;5071943;28;20584;-73
2024/01/26 12:32:09;;;;;;;0.40;0.40;;;12.70;99.90;15.80;102674.00;;;;5073406;28;20188;-72
2024/01/26 12:34:44;;;;;;;1.73;1.03;;;12.70;99.90;15.70;102662.00;;;;5070505;28;20722;-72
2024/01/26 12:37:15;;;;;;;0.20;0.20;;;12.60;99.90;16.00;102678.00;;;;5073429;28;20262;-72
2024/01/26 12:39:41;;;;;;;0.10;0.10;;;12.60;99.90;15.60;102672.00;;;;5073294;28;20295;-72
2024/01/26 12:42:11;;;;;;;0.10;0.10;;;12.50;99.90;15.30;102679.00;;;;5073222;28;20195;-72
2024/01/26 12:44:45;;;;;;;0.43;0.20;;;12.40;99.90;15.40;102677.00;;;;5090819;28;20260;-72
2024/01/26 12:47:26;;;;;;;0.20;0.20;;;12.30;99.90;15.00;102707.00;;;;5072866;28;20184;-72
2024/01/26 12:50:04;;;;;;;0.33;0.33;;;12.20;99.90;15.30;102692.00;;;;5073379;28;20254;-72
2024/01/26 12:52:32;;;;;;;1.23;1.23;;;12.20;99.90;15.20;102684.00;;;;5071136;28;20191;-72
2024/01/26 12:55:04;;;;;;;2.13;1.20;;;12.30;99.90;15.10;102696.00;;;;5071166;28;20245;-72
2024/01/26 12:57:34;;;;;;;0.13;0.13;;;12.20;99.90;15.40;102711.00;;;;5086908;28;20187;-72
2024/01/26 13:00:06;;;;;;;0.40;0.40;;;12.20;99.90;15.30;102710.00;;;;5072990;28;20191;-72
2024/01/26 13:02:40;;;;;;;0.30;0.30;;;12.30;99.90;14.90;102715.00;;;;5089465;28;20983;-72
2024/01/26 13:05:08;;;;;;;0.20;0.20;;;12.10;99.90;14.80;102717.00;;;;5073076;28;20229;-72
2024/01/26 13:07:47;;;;;;;0.20;0.20;;;12.00;99.90;15.30;102718.00;;;;5072902;28;20186;-72
2024/01/26 13:10:21;;;;;;;0.30;0.30;;;12.10;99.90;15.50;102725.00;;;;5063324;28;20182;-72
2024/01/26 13:12:51;;;;;;;0.20;0.20;;;12.20;99.90;15.20;102721.00;;;;5072442;28;20730;-72
2024/01/26 13:15:20;;;;;;;0.10;0.10;;;12.30;99.90;15.80;102721.00;;;;5063357;28;20192;-72
2024/01/26 13:17:47;;;;;;;0.10;0.10;;;12.50;99.90;15.80;102724.00;;;;5064448;28;20185;-72
2024/01/26 13:20:18;;;;;;;0.43;0.43;;;12.60;99.90;15.30;102724.00;;;;5081411;28;20221;-73
2024/01/26 13:22:47;;;;;;;0.20;0.20;;;12.40;99.90;15.30;102720.00;;;;5079727;28;20181;-72
2024/01/26 13:25:22;;;;;;;2.73;0.53;;;12.30;99.90;15.30;102717.00;;;;5082687;28;20677;-72
2024/01/26 13:27:48;;;;;;;0.17;0.17;;;12.30;99.90;15.00;102740.00;;;;5079727;28;20275;-72
2024/01/26 13:30:18;;;;;;;0.10;0.10;;;12.10;99.90;15.30;102753.00;;;;5081126;28;20271;-72
2024/01/26 13:32:47;;;;;;;0.20;0.20;;;12.10;99.90;15.70;102742.00;;;;5080723;28;20247;-72
2024/01/26 13:35:14;;;;;;;0.30;0.20;;;12.30;99.90;15.30;102655.00;;;;5080155;28;20647;-72
2024/01/26 13:37:40;;;;;;;0.30;0.30;;;12.40;99.90;14.60;102768.00;;;;5079448;28;20187;-72
2024/01/26 13:40:07;;;;;;;0.20;0.20;;;12.00;99.90;15.10;102723.00;;;;5081191;28;20194;-72
2024/01/26 13:42:35;;;;;;;0.20;0.20;;;12.00;99.90;14.80;102756.00;;;;5081458;28;20277;-72
2024/01/26 13:45:02;;;;;;;0.27;0.27;;;11.80;99.90;14.50;102764.00;;;;5081180;28;20192;-72
2024/01/26 13:47:29;;;;;;;0.20;0.20;;;11.60;99.90;14.90;102761.00;;;;5081022;28;20673;-73
2024/01/26 13:49:56;;;;;;;0.70;0.70;;;11.60;99.90;14.40;102777.00;;;;5097688;28;20199;-72
2024/01/26 13:52:25;;;;;;;2.37;0.57;;;11.50;99.90;14.40;102788.00;;;;5081911;28;20202;-73
2024/01/26 13:54:54;;;;;;;0.20;0.20;;;11.40;99.90;13.70;102812.00;;;;5096770;28;20187;-73
2024/01/26 13:57:20;;;;;;;0.13;0.13;;;11.20;99.90;14.60;102785.00;;;;5079859;28;20209;-73
2024/01/26 13:59:46;;;;;;;0.10;0.10;;;11.10;99.90;14.70;102809.00;;;;5097206;28;20237;-73
2024/01/26 14:02:12;;;;;;;0.20;0.20;;;11.30;99.90;15.30;102813.00;;;;5080886;28;20556;-73
2024/01/26 14:04:39;;;;;;;0.20;0.20;;;11.60;99.90;14.80;102793.00;;;;5080669;28;20201;-73
2024/01/26 14:07:05;;;;;;;0.10;0.10;;;11.70;99.90;14.90;102801.00;;;;5078933;28;20182;-74
2024/01/26 14:09:31;;;;;;;0.10;0.10;;;11.60;99.90;14.90;102840.00;;;;5079166;28;20261;-73
2024/01/26 14:11:57;;;;;;;0.57;0.30;;;11.50;99.90;14.30;102828.00;;;;5081177;28;20288;-73
2024/01/26 14:14:23;;;;;;;2.97;0.40;;;11.30;99.90;14.50;102859.00;;;;5079292;28;20203;-74
2024/01/26 14:16:52;;;;;;;0.43;0.30;;;11.30;99.90;14.60;102862.00;;;;5076298;28;20186;-73
2024/01/26 14:19:21;;;;;;;0.20;0.20;;;11.30;99.90;14.70;102850.00;;;;5070026;28;20677;-73
2024/01/26 14:21:48;;;;;;;1.70;0.40;;;11.30;99.90;14.20;102878.00;;;;5079887;28;20182;-73
2024/01/26 14:24:20;;;;;;;1.37;0.93;;;11.10;99.90;14.40;102878.00;;;;5079207;28;20199;-73
2024/01/26 14:26:47;;;;;;;0.20;0.20;;;11.10;99.90;14.20;102903.00;;;;5091943;28;20190;-73
2024/01/26 14:29:17;;;;;;;0.17;0.17;;;11.00;99.90;14.30;102905.00;;;;5080106;28;20664;-74
2024/01/26 14:31:45;;;;;;;0.20;0.20;;;11.00;99.90;13.80;102919.00;;;;5079988;28;20218;-73
2024/01/26 14:34:12;;;;;;;0.40;0.40;;;10.90;99.90;14.00;102898.00;;;;5077749;28;20644;-73
2024/01/26 14:36:42;;;;;;;0.13;0.13;;;10.90;99.90;13.80;102908.00;;;;5078939;28;20201;-74
2024/01/26 14:39:08;;;;;;;0.50;0.50;;;10.80;99.90;13.80;102885.00;;;;5080147;28;20180;-74
2024/01/26 14:41:37;;;;;;;0.20;0.20;;;10.60;99.90;13.60;102924.00;;;;5079535;28;20192;-73
2024/01/26 14:44:04;;;;;;;0.20;0.20;;;10.70;99.90;13.80;102915.00;;;;5079230;28;20666;-73
2024/01/26 14:46:39;;;;;;;0.20;0.20;;;10.60;99.90;13.50;102937.00;;;;5079000;28;20204;-74
2024/01/26 14:49:05;;;;;;;0.20;0.20;;;10.50;99.90;13.90;102928.00;;;;5079003;28;20176;-73
2024/01/26 14:51:40;;;;;;;1.80;1.23;;;10.60;99.90;13.60;102949.00;;;;5079304;28;20206;-74
2024/01/26 14:54:26;;;;;;;0.67;0.27;;;10.60;99.90;13.50;102939.00;;;;5064021;28;20603;-73
2024/01/26 14:56:57;;;;;;;0.33;0.33;;;10.50;99.90;13.70;102938.00;;;;5062493;28;20646;-73
2024/01/26 14:59:28;;;;;;;0.20;0.20;;;10.50;99.90;13.90;102943.00;;;;5080172;28;20188;-73
2024/01/26 15:01:54;;;;;;;0.20;0.20;;;10.60;99.90;13.50;102955.00;;;;5080536;28;20194;-73
2024/01/26 15:04:29;;;;;;;0.20;0.20;;;10.40;99.90;14.10;102916.00;;;;5079923;28;20226;-73
2024/01/26 15:07:01;;;;;;;0.70;0.70;;;10.60;99.90;14.30;102964.00;;;;5081173;28;20266;-73
2024/01/26 15:09:33;;;;;;;0.30;0.30;;;10.70;99.90;14.00;102965.00;;;;5096816;28;20190;-73
2024/01/26 15:12:04;;;;;;;0.20;0.20;;;10.70;99.90;14.50;102973.00;;;;5092697;28;20296;-73
2024/01/26 15:15:09;;;;;;;0.20;0.20;;;10.80;99.90;13.90;103002.00;;;;5078437;28;20175;-73
2024/01/26 15:17:52;;;;;;;0.20;0.20;;;10.70;99.90;13.60;102988.00;;;;5093562;28;20265;-73
2024/01/26 15:20:18;;;;;;;0.10;0.10;;;10.50;99.90;14.00;103009.00;;;;5082224;28;20221;-73
2024/01/26 15:22:51;;;;;;;0.20;0.20;;;10.60;99.90;13.90;103019.00;;;;5080019;28;20210;-74
2024/01/26 15:25:21;;;;;;;0.20;0.20;;;10.60;99.90;13.70;102992.00;;;;5086750;28;20210;-75
2024/01/26 15:27:47;;;;;;;1.20;0.57;;;10.40;99.90;13.70;103019.00;;;;5083417;28;20268;-73
2024/01/26 15:30:16;;;;;;;3.00;1.23;;;10.40;99.90;13.90;102990.00;;;;5082524;28;20192;-74
2024/01/26 15:32:43;;;;;;;0.10;0.10;;;10.40;99.90;13.80;103026.00;;;;5088312;28;20577;-73
2024/01/26 15:35:16;;;;;;;2.47;1.80;;;10.50;99.90;13.80;103035.00;;;;5082191;28;20207;-72
2024/01/26 15:37:42;;;;;;;0.20;0.20;;;10.40;99.90;14.20;103029.00;;;;5082024;28;20191;-73
2024/01/26 15:40:13;;;;;;;0.20;0.20;;;10.50;99.90;13.80;103038.00;;;;5081621;28;20186;-72
2024/01/26 15:42:39;;;;;;;0.30;0.30;;;10.60;99.90;14.00;103036.00;;;;5080898;28;20185;-72
2024/01/26 15:45:16;;;;;;;0.20;0.20;;;10.50;99.90;13.50;103052.00;;;;5082219;28;20177;-72
2024/01/26 15:47:43;;;;;;;0.20;0.20;;;10.30;99.90;13.40;103054.00;;;;5082894;28;20217;-72
2024/01/26 15:50:09;;;;;;;0.20;0.20;;;10.20;99.90;13.40;103071.00;;;;5065915;28;20200;-73
2024/01/26 15:52:36;;;;;;;0.20;0.20;;;10.10;99.90;13.30;103078.00;;;;5084047;28;20652;-72
2024/01/26 15:55:02;;;;;;;0.20;0.20;;;10.00;99.90;13.80;103074.00;;;;5081712;28;20179;-72
2024/01/26 15:57:28;;;;;;;0.20;0.20;;;10.20;99.90;13.80;103036.00;;;;5083137;28;20194;-73
2024/01/26 15:59:55;;;;;;;0.20;0.20;;;10.20;99.90;13.70;103037.00;;;;5082278;28;20188;-67
2024/01/26 16:02:21;;;;;;;0.20;0.20;;;10.20;99.90;13.70;103078.00;;;;5099044;28;20295;-73
2024/01/26 16:04:46;;;;;;;0.20;0.20;;;10.10;99.90;13.50;103071.00;;;;5082263;28;20279;-73
2024/01/26 16:07:12;;;;;;;0.20;0.20;;;10.00;99.90;13.80;103082.00;;;;5082616;28;20548;-73
2024/01/26 16:09:41;;;;;;;0.20;0.20;;;10.10;99.90;14.00;103066.00;;;;5082960;28;20697;-73
2024/01/26 16:12:10;;;;;;;0.20;0.20;;;10.20;99.90;13.40;103072.00;;;;5081871;28;20245;-73
2024/01/26 16:14:36;;;;;;;0.20;0.20;;;10.00;99.90;13.10;103103.00;;;;5081592;28;20178;-73
2024/01/26 16:17:02;;;;;;;0.20;0.20;;;9.90;99.90;13.40;103105.00;;;;5081942;28;20173;-73
2024/01/26 16:19:28;;;;;;;0.20;0.20;;;9.90;99.90;13.50;103106.00;;;;5082769;28;20196;-73
2024/01/26 16:21:54;;;;;;;0.20;0.20;;;9.90;99.90;13.70;103074.00;;;;5082008;28;20195;-73
2024/01/26 16:24:20;;;;;;;0.50;0.50;;;9.90;99.90;13.20;103115.00;;;;5065697;28;20185;-72
2024/01/26 16:26:46;;;;;;;0.20;0.20;;;9.80;99.90;13.50;103111.00;;;;5081253;28;20190;-72
2024/01/26 16:29:12;;;;;;;0.20;0.20;;;9.70;99.90;13.30;103108.00;;;;5082419;28;20545;-73
2024/01/26 16:31:39;;;;;;;0.20;0.20;;;9.70;99.90;13.40;103123.00;;;;5082184;28;20556;-73
2024/01/26 16:34:05;;;;;;;0.27;0.27;;;9.60;99.90;13.50;103126.00;;;;5081819;28;20189;-73
2024/01/26 16:36:39;;;;;;;0.20;0.20;;;9.70;99.90;13.40;103133.00;;;;5082271;28;20178;-73
2024/01/26 16:39:05;;;;;;;0.50;0.50;;;9.60;99.90;13.50;103138.00;;;;5080399;28;20182;-73
2024/01/26 16:41:31;;;;;;;0.20;0.20;;;9.90;99.90;13.60;103137.00;;;;5081564;28;20569;-73
2024/01/26 16:43:57;;;;;;;0.30;0.30;;;9.80;99.90;13.40;103141.00;;;;5081339;28;20257;-73
2024/01/26 16:46:23;;;;;;;0.20;0.20;;;9.70;99.90;13.20;103144.00;;;;5081756;28;20197;-72
2024/01/26 16:48:50;;;;;;;0.20;0.20;;;9.50;99.90;13.30;103125.00;;;;5065343;28;20190;-73
2024/01/26 16:51:39;;;;;;;0.57;0.57;;;9.60;99.90;13.30;103159.00;;;;5081017;28;20647;-73
2024/01/26 16:54:12;;;;;;;0.30;0.30;;;9.60;99.90;13.20;103131.00;;;;5098135;28;20193;-73
2024/01/26 16:56:39;;;;;;;0.20;0.20;;;9.60;99.90;12.80;103167.00;;;;5081105;28;20184;-73
2024/01/26 16:59:05;;;;;;;0.30;0.30;;;9.40;99.90;11.70;103173.00;;;;5082360;28;20271;-72
2024/01/26 17:01:34;;;;;;;0.20;0.20;;;8.90;99.90;12.40;103157.00;;;;5082532;28;20280;-73
2024/01/26 17:04:00;;;;;;;3.53;0.87;;;8.90;99.90;12.20;103161.00;;;;5064044;28;20196;-73
2024/01/26 17:06:26;;;;;;;0.10;0.10;;;8.90;99.90;12.20;103151.00;;;;5081290;28;20193;-73
2024/01/26 17:08:52;;;;;;;0.90;0.50;;;8.90;99.90;12.20;103126.00;;;;5081870;28;20194;-73
2024/01/26 17:11:18;;;;;;;0.20;0.20;;;8.90;99.90;12.20;103125.00;;;;5081295;28;20217;-73
2024/01/26 17:13:44;;;;;;;0.20;0.20;;;8.90;99.90;11.20;103128.00;;;;5081338;28;20186;-74
2024/01/26 17:16:10;;;;;;;0.10;0.10;;;8.60;99.90;10.90;103112.00;;;;5080388;28;20272;-73
2024/01/26 17:18:36;;;;;;;0.20;0.20;;;8.30;99.90;11.80;103094.00;;;;5098149;28;20281;-73
2024/01/26 17:21:02;;;;;;;0.20;0.20;;;8.50;99.90;12.00;103090.00;;;;5081350;28;20789;-73
2024/01/26 17:23:35;;;;;;;0.20;0.20;;;8.60;99.90;11.80;103049.00;;;;5080777;28;20201;-73
2024/01/26 17:26:02;;;;;;;1.33;1.27;;;8.60;99.90;11.10;103080.00;;;;5082136;28;20227;-73
2024/01/26 17:28:28;;;;;;;2.83;1.17;;;8.30;99.90;10.70;103085.00;;;;5080815;28;20614;-73
2024/01/26 17:33:40;;;;;;;0.10;0.10;;;8.00;99.90;10.90;103073.00;;;;5074824;28;20236;-73
2024/01/26 17:36:07;;;;;;;0.23;0.23;;;8.00;99.90;10.80;103036.00;;;;5080790;28;20177;-73
2024/01/26 17:38:33;;;;;;;0.20;0.20;;;8.00;99.90;11.20;103068.00;;;;5080112;28;20265;-73
2024/01/26 17:40:59;;;;;;;0.50;0.50;;;8.20;99.90;10.90;103068.00;;;;5080392;28;20198;-73
2024/01/26 17:43:25;;;;;;;0.20;0.20;;;8.10;99.90;10.60;103069.00;;;;5080768;28;20559;-73
2024/01/26 17:45:50;;;;;;;0.30;0.30;;;8.00;99.90;10.80;103058.00;;;;5081466;28;20196;-73
2024/01/26 17:48:16;;;;;;;0.20;0.20;;;8.10;99.90;9.80;103075.00;;;;5080365;28;20181;-73
2024/01/26 17:50:45;;;;;;;0.30;0.30;;;7.70;99.90;10.40;103057.00;;;;5081194;28;20189;-73
2024/01/26 17:53:11;;;;;;;0.97;0.93;;;7.70;99.90;10.10;103030.00;;;;5064454;28;20568;-72
2024/01/26 17:55:40;;;;;;;0.30;0.30;;;7.80;99.90;10.00;103039.00;;;;5080445;28;20192;-73
2024/01/26 17:58:06;;;;;;;0.87;0.87;;;7.60;99.90;10.90;103079.00;;;;5080596;28;20185;-73
2024/01/26 18:00:32;;;;;;;0.20;0.20;;;7.90;99.90;11.30;103079.00;;;;5079573;28;20701;-73
2024/01/26 18:02:59;;;;;;;1.67;0.83;;;8.10;99.90;10.90;103115.00;;;;5069158;28;20221;-73
2024/01/26 18:05:27;;;;;;;0.70;0.60;;;8.10;99.90;10.50;103106.00;;;;5070260;28;20272;-73
2024/01/26 18:07:53;;;;;;;0.20;0.20;;;7.90;99.90;10.30;103109.00;;;;5054350;28;20190;-72
2024/01/26 18:10:19;;;;;;;5.03;1.03;;;7.70;99.90;9.80;103094.00;;;;5067547;28;20216;-73
2024/01/26 18:12:45;;;;;;;0.20;0.20;;;7.60;99.90;10.50;103089.00;;;;5070377;28;20252;-73
2024/01/26 18:15:11;;;;;;;0.20;0.20;;;7.70;99.90;9.60;103058.00;;;;5072873;28;20219;-73
2024/01/26 18:17:37;;;;;;;0.20;0.20;;;7.50;99.90;9.60;103096.00;;;;5068499;28;20195;-73
2024/01/26 18:20:05;;;;;;;3.87;1.10;;;7.30;99.90;10.60;103078.00;;;;5071719;28;20186;-73
2024/01/26 18:22:34;;;;;;;1.03;0.73;;;7.60;99.90;10.30;103092.00;;;;5069218;28;20185;-73
2024/01/26 18:25:01;;;;;;;1.13;0.70;;;7.60;99.90;10.40;103106.00;;;;5071488;28;20185;-73
2024/01/26 18:27:29;;;;;;;0.93;0.90;;;7.60;99.90;9.80;103112.00;;;;5069690;28;20771;-73
2024/01/26 18:29:55;;;;;;;0.83;0.50;;;7.60;99.90;10.00;103099.00;;;;5071868;28;20660;-73
2024/01/26 18:32:20;;;;;;;0.90;0.87;;;7.50;99.90;10.00;103097.00;;;;5071510;28;20218;-73
2024/01/26 18:34:46;;;;;;;0.30;0.30;;;7.50;99.90;10.10;103119.00;;;;5071569;28;20193;-73
2024/01/26 18:37:14;;;;;;;0.20;0.20;;;7.40;99.90;9.40;103086.00;;;;5078208;28;20183;-73
2024/01/26 18:39:44;;;;;;;0.30;0.30;;;7.20;99.90;9.60;103114.00;;;;5072089;28;20218;-72
2024/01/26 18:42:17;;;;;;;0.20;0.20;;;7.20;99.90;10.00;103090.00;;;;5071986;28;20182;-72
2024/01/26 18:44:43;;;;;;;0.20;0.20;;;7.20;99.90;10.30;103133.00;;;;5071512;28;20630;-73
2024/01/26 18:47:09;;;;;;;0.30;0.30;;;7.60;99.90;10.50;103022.00;;;;5073041;28;20196;-73
2024/01/26 18:49:39;;;;;;;0.63;0.63;;;7.50;99.90;10.10;103140.00;;;;5078556;28;20692;-73